sensor_id;sensor_type;location;lat;lon;timestamp;P1;durP1;ratioP1;P2;durP2;ratioP2
29006;SDS011;16104;48.642;9.008;2023-05-07T01:04:17;4.13;;;3.15;;
29006;SDS011;16104;48.642;9.008;2023-05-07T01:09:12;4.47;;;3.25;;
29006;SDS011;16104;48.642;9.008;2023-05-07T01:14:08;3.33;;;3.03;;
29006;SDS011;16104;48.642;9.008;2023-05-07T02:04:53;9.75;;;3.45;;
29006;SDS011;16104;48.642;9.008;2023-05-07T02:09:48;4.90;;;3.17;;
29006;SDS011;16104;48.642;9.008;2023-05-07T02:14:44;3.67;;;2.88;;
29006;SDS011;16104;48.642;9.008;2023-05-07T03:00:22;2.63;;;2.17;;
29006;SDS011;16104;48.642;9.008;2023-05-07T03:05:18;3.50;;;2.55;;
29006;SDS011;16104;48.642;9.008;2023-05-07T03:10:14;5.43;;;3.00;;
29006;SDS011;16104;48.642;9.008;2023-05-07T03:15:10;2.53;;;2.25;;
29006;SDS011;16104;48.642;9.008;2023-05-07T03:20:07;3.33;;;2.78;;
29006;SDS011;16104;48.642;9.008;2023-05-07T03:25:04;5.00;;;3.35;;
29006;SDS011;16104;48.642;9.008;2023-05-07T03:30:00;3.35;;;2.80;;
29006;SDS011;16104;48.642;9.008;2023-05-07T03:34:56;5.03;;;3.08;;
29006;SDS011;16104;48.642;9.008;2023-05-07T03:39:51;3.28;;;2.97;;
29006;SDS011;16104;48.642;9.008;2023-05-07T03:44:47;3.33;;;2.78;;
29006;SDS011;16104;48.642;9.008;2023-05-07T03:49:42;4.03;;;3.10;;
29006;SDS011;16104;48.642;9.008;2023-05-07T03:54:38;5.43;;;3.10;;
29006;SDS011;16104;48.642;9.008;2023-05-07T03:59:33;8.07;;;3.85;;
29006;SDS011;16104;48.642;9.008;2023-05-07T04:04:29;3.22;;;2.88;;
29006;SDS011;16104;48.642;9.008;2023-05-07T04:09:27;4.43;;;2.97;;
29006;SDS011;16104;48.642;9.008;2023-05-07T04:14:23;4.10;;;3.15;;
29006;SDS011;16104;48.642;9.008;2023-05-07T04:19:18;5.60;;;4.30;;
29006;SDS011;16104;48.642;9.008;2023-05-07T04:24:14;4.35;;;3.22;;
29006;SDS011;16104;48.642;9.008;2023-05-07T04:29:09;7.30;;;3.85;;
29006;SDS011;16104;48.642;9.008;2023-05-07T04:34:05;3.95;;;3.33;;
29006;SDS011;16104;48.642;9.008;2023-05-07T04:39:02;4.35;;;3.60;;
29006;SDS011;16104;48.642;9.008;2023-05-07T04:43:57;3.67;;;3.38;;
29006;SDS011;16104;48.642;9.008;2023-05-07T04:48:53;4.72;;;4.22;;
29006;SDS011;16104;48.642;9.008;2023-05-07T04:53:49;4.80;;;4.03;;
29006;SDS011;16104;48.642;9.008;2023-05-07T04:58:45;6.18;;;3.15;;
29006;SDS011;16104;48.642;9.008;2023-05-07T05:03:41;4.18;;;3.42;;
29006;SDS011;16104;48.642;9.008;2023-05-07T05:08:36;4.35;;;3.58;;
29006;SDS011;16104;48.642;9.008;2023-05-07T05:13:32;3.78;;;3.42;;
29006;SDS011;16104;48.642;9.008;2023-05-07T05:18:27;3.67;;;2.92;;
29006;SDS011;16104;48.642;9.008;2023-05-07T05:23:23;7.80;;;4.63;;
29006;SDS011;16104;48.642;9.008;2023-05-07T05:28:18;4.13;;;3.72;;
29006;SDS011;16104;48.642;9.008;2023-05-07T05:33:14;4.25;;;3.65;;
29006;SDS011;16104;48.642;9.008;2023-05-07T05:38:09;5.70;;;3.75;;
29006;SDS011;16104;48.642;9.008;2023-05-07T05:43:05;5.75;;;3.38;;
29006;SDS011;16104;48.642;9.008;2023-05-07T05:48:01;3.55;;;3.25;;
29006;SDS011;16104;48.642;9.008;2023-05-07T05:52:56;4.30;;;3.30;;
29006;SDS011;16104;48.642;9.008;2023-05-07T05:57:52;5.55;;;3.38;;
29006;SDS011;16104;48.642;9.008;2023-05-07T06:02:48;3.38;;;3.08;;
29006;SDS011;16104;48.642;9.008;2023-05-07T06:07:43;2.90;;;2.60;;
29006;SDS011;16104;48.642;9.008;2023-05-07T06:12:39;3.55;;;3.13;;
29006;SDS011;16104;48.642;9.008;2023-05-07T06:17:35;4.47;;;2.80;;
29006;SDS011;16104;48.642;9.008;2023-05-07T06:22:30;4.68;;;3.22;;
29006;SDS011;16104;48.642;9.008;2023-05-07T06:27:26;7.18;;;3.30;;
29006;SDS011;16104;48.642;9.008;2023-05-07T06:32:22;3.95;;;3.15;;
29006;SDS011;16104;48.642;9.008;2023-05-07T06:37:18;3.28;;;2.97;;
29006;SDS011;16104;48.642;9.008;2023-05-07T06:42:14;3.42;;;2.95;;
29006;SDS011;16104;48.642;9.008;2023-05-07T06:47:09;4.30;;;2.80;;
29006;SDS011;16104;48.642;9.008;2023-05-07T06:52:05;3.72;;;2.75;;
29006;SDS011;16104;48.642;9.008;2023-05-07T06:57:01;3.60;;;2.88;;
29006;SDS011;16104;48.642;9.008;2023-05-07T07:01:56;3.85;;;3.00;;
29006;SDS011;16104;48.642;9.008;2023-05-07T07:06:53;3.63;;;2.90;;
29006;SDS011;16104;48.642;9.008;2023-05-07T07:11:48;4.75;;;2.83;;
29006;SDS011;16104;48.642;9.008;2023-05-07T07:16:44;4.75;;;2.90;;
29006;SDS011;16104;48.642;9.008;2023-05-07T07:21:41;2.70;;;2.50;;
29006;SDS011;16104;48.642;9.008;2023-05-07T07:26:37;7.13;;;3.00;;
29006;SDS011;16104;48.642;9.008;2023-05-07T07:31:34;4.47;;;2.30;;
29006;SDS011;16104;48.642;9.008;2023-05-07T07:36:30;4.82;;;2.47;;
29006;SDS011;16104;48.642;9.008;2023-05-07T07:41:25;3.83;;;2.47;;
29006;SDS011;16104;48.642;9.008;2023-05-07T07:46:21;2.60;;;2.40;;
29006;SDS011;16104;48.642;9.008;2023-05-07T07:51:16;3.55;;;2.55;;
29006;SDS011;16104;48.642;9.008;2023-05-07T07:56:12;2.35;;;2.15;;
29006;SDS011;16104;48.642;9.008;2023-05-07T08:01:07;2.38;;;2.00;;
29006;SDS011;16104;48.642;9.008;2023-05-07T08:06:03;4.35;;;2.50;;
29006;SDS011;16104;48.642;9.008;2023-05-07T08:10:58;3.40;;;1.90;;
29006;SDS011;16104;48.642;9.008;2023-05-07T08:15:54;5.10;;;2.25;;
29006;SDS011;16104;48.642;9.008;2023-05-07T08:20:50;2.25;;;2.10;;
29006;SDS011;16104;48.642;9.008;2023-05-07T08:25:45;2.28;;;1.80;;
29006;SDS011;16104;48.642;9.008;2023-05-07T08:30:41;2.20;;;2.00;;
29006;SDS011;16104;48.642;9.008;2023-05-07T08:35:36;3.97;;;1.60;;
29006;SDS011;16104;48.642;9.008;2023-05-07T08:40:38;3.63;;;1.55;;
29006;SDS011;16104;48.642;9.008;2023-05-07T08:45:34;2.47;;;1.70;;
29006;SDS011;16104;48.642;9.008;2023-05-07T08:50:30;1.60;;;1.33;;
29006;SDS011;16104;48.642;9.008;2023-05-07T08:55:25;1.67;;;1.52;;
29006;SDS011;16104;48.642;9.008;2023-05-07T09:00:23;3.80;;;1.80;;
29006;SDS011;16104;48.642;9.008;2023-05-07T09:05:19;2.42;;;1.65;;
29006;SDS011;16104;48.642;9.008;2023-05-07T09:10:15;3.13;;;1.80;;
29006;SDS011;16104;48.642;9.008;2023-05-07T09:15:10;4.72;;;1.98;;
29006;SDS011;16104;48.642;9.008;2023-05-07T09:20:07;2.10;;;1.65;;
29006;SDS011;16104;48.642;9.008;2023-05-07T09:25:03;2.35;;;1.98;;
29006;SDS011;16104;48.642;9.008;2023-05-07T09:30:02;4.38;;;1.95;;
29006;SDS011;16104;48.642;9.008;2023-05-07T09:34:58;2.33;;;1.60;;
29006;SDS011;16104;48.642;9.008;2023-05-07T09:39:54;2.22;;;1.75;;
29006;SDS011;16104;48.642;9.008;2023-05-07T09:44:50;1.55;;;1.45;;
29006;SDS011;16104;48.642;9.008;2023-05-07T09:49:46;3.17;;;1.50;;
29006;SDS011;16104;48.642;9.008;2023-05-07T09:54:43;1.88;;;1.63;;
29006;SDS011;16104;48.642;9.008;2023-05-07T09:59:39;2.85;;;1.65;;
29006;SDS011;16104;48.642;9.008;2023-05-07T10:04:37;2.88;;;1.75;;
29006;SDS011;16104;48.642;9.008;2023-05-07T10:09:34;2.22;;;1.80;;
29006;SDS011;16104;48.642;9.008;2023-05-07T10:14:33;2.20;;;1.77;;
29006;SDS011;16104;48.642;9.008;2023-05-07T10:19:29;3.78;;;1.60;;
29006;SDS011;16104;48.642;9.008;2023-05-07T10:24:26;3.08;;;1.70;;
29006;SDS011;16104;48.642;9.008;2023-05-07T10:34:47;3.17;;;2.00;;
29006;SDS011;16104;48.642;9.008;2023-05-07T10:39:45;3.75;;;1.60;;
29006;SDS011;16104;48.642;9.008;2023-05-07T10:44:41;2.60;;;2.17;;
29006;SDS011;16104;48.642;9.008;2023-05-07T10:54:38;2.33;;;2.00;;
29006;SDS011;16104;48.642;9.008;2023-05-07T10:59:34;3.40;;;1.65;;
29006;SDS011;16104;48.642;9.008;2023-05-07T11:04:36;1.92;;;1.42;;
29006;SDS011;16104;48.642;9.008;2023-05-07T11:14:47;2.47;;;1.60;;
29006;SDS011;16104;48.642;9.008;2023-05-07T11:19:47;1.48;;;1.38;;
29006;SDS011;16104;48.642;9.008;2023-05-07T11:24:45;3.88;;;2.03;;
29006;SDS011;16104;48.642;9.008;2023-05-07T11:29:41;1.50;;;1.40;;
29006;SDS011;16104;48.642;9.008;2023-05-07T11:34:42;3.17;;;1.65;;
29006;SDS011;16104;48.642;9.008;2023-05-07T11:39:39;2.42;;;1.70;;
29006;SDS011;16104;48.642;9.008;2023-05-07T11:44:41;3.05;;;1.52;;
29006;SDS011;16104;48.642;9.008;2023-05-07T11:49:38;2.47;;;1.70;;
29006;SDS011;16104;48.642;9.008;2023-05-07T11:54:36;2.67;;;1.90;;
29006;SDS011;16104;48.642;9.008;2023-05-07T11:59:39;2.38;;;1.80;;
29006;SDS011;16104;48.642;9.008;2023-05-07T12:04:43;3.33;;;1.88;;
29006;SDS011;16104;48.642;9.008;2023-05-07T12:09:39;3.25;;;2.38;;
29006;SDS011;16104;48.642;9.008;2023-05-07T12:14:39;3.42;;;2.30;;
29006;SDS011;16104;48.642;9.008;2023-05-07T12:25:04;5.95;;;1.95;;
29006;SDS011;16104;48.642;9.008;2023-05-07T12:29:53;2.78;;;1.48;;
29006;SDS011;16104;48.642;9.008;2023-05-07T12:34:51;8.48;;;2.40;;
29006;SDS011;16104;48.642;9.008;2023-05-07T12:39:47;5.47;;;1.95;;
29006;SDS011;16104;48.642;9.008;2023-05-07T12:44:45;4.63;;;1.98;;
29006;SDS011;16104;48.642;9.008;2023-05-07T12:49:41;5.03;;;2.38;;
29006;SDS011;16104;48.642;9.008;2023-05-07T12:54:37;6.75;;;2.60;;
29006;SDS011;16104;48.642;9.008;2023-05-07T12:59:37;5.18;;;2.22;;
29006;SDS011;16104;48.642;9.008;2023-05-07T13:04:34;5.50;;;2.10;;
29006;SDS011;16104;48.642;9.008;2023-05-07T13:09:30;4.40;;;1.70;;
29006;SDS011;16104;48.642;9.008;2023-05-07T13:14:26;3.85;;;1.42;;
29006;SDS011;16104;48.642;9.008;2023-05-07T13:19:22;3.00;;;1.83;;
29006;SDS011;16104;48.642;9.008;2023-05-07T13:24:17;2.88;;;1.77;;
29006;SDS011;16104;48.642;9.008;2023-05-07T13:29:13;5.30;;;1.80;;
29006;SDS011;16104;48.642;9.008;2023-05-07T13:34:08;8.98;;;1.92;;
29006;SDS011;16104;48.642;9.008;2023-05-07T13:39:04;3.55;;;2.17;;
29006;SDS011;16104;48.642;9.008;2023-05-07T13:44:01;4.10;;;2.17;;
29006;SDS011;16104;48.642;9.008;2023-05-07T13:48:56;3.67;;;1.95;;
29006;SDS011;16104;48.642;9.008;2023-05-07T13:53:52;3.47;;;1.65;;
29006;SDS011;16104;48.642;9.008;2023-05-07T13:58:47;4.70;;;2.00;;
29006;SDS011;16104;48.642;9.008;2023-05-07T14:03:42;2.97;;;1.90;;
29006;SDS011;16104;48.642;9.008;2023-05-07T14:08:39;5.90;;;1.95;;
29006;SDS011;16104;48.642;9.008;2023-05-07T14:13:35;4.20;;;2.20;;
29006;SDS011;16104;48.642;9.008;2023-05-07T14:18:30;4.03;;;2.10;;
29006;SDS011;16104;48.642;9.008;2023-05-07T14:23:28;4.90;;;2.00;;
29006;SDS011;16104;48.642;9.008;2023-05-07T14:28:24;3.30;;;1.90;;
29006;SDS011;16104;48.642;9.008;2023-05-07T14:33:19;3.17;;;1.83;;
29006;SDS011;16104;48.642;9.008;2023-05-07T14:38:15;5.00;;;2.13;;
29006;SDS011;16104;48.642;9.008;2023-05-07T14:43:10;7.82;;;1.80;;
29006;SDS011;16104;48.642;9.008;2023-05-07T14:48:06;2.60;;;2.08;;
29006;SDS011;16104;48.642;9.008;2023-05-07T14:53:01;2.80;;;1.90;;
29006;SDS011;16104;48.642;9.008;2023-05-07T14:57:57;5.47;;;2.15;;
29006;SDS011;16104;48.642;9.008;2023-05-07T15:02:52;4.18;;;2.40;;
29006;SDS011;16104;48.642;9.008;2023-05-07T15:07:50;2.20;;;2.00;;
29006;SDS011;16104;48.642;9.008;2023-05-07T15:12:45;2.67;;;2.17;;
29006;SDS011;16104;48.642;9.008;2023-05-07T15:17:41;4.65;;;1.90;;
29006;SDS011;16104;48.642;9.008;2023-05-07T15:22:36;4.60;;;2.45;;
29006;SDS011;16104;48.642;9.008;2023-05-07T15:27:32;3.50;;;2.08;;
29006;SDS011;16104;48.642;9.008;2023-05-07T15:32:27;2.83;;;2.00;;
29006;SDS011;16104;48.642;9.008;2023-05-07T15:37:23;3.60;;;2.78;;
29006;SDS011;16104;48.642;9.008;2023-05-07T15:42:18;2.10;;;1.88;;
29006;SDS011;16104;48.642;9.008;2023-05-07T15:47:14;2.63;;;1.88;;
29006;SDS011;16104;48.642;9.008;2023-05-07T15:52:10;3.38;;;1.90;;
29006;SDS011;16104;48.642;9.008;2023-05-07T15:57:06;3.35;;;2.10;;
29006;SDS011;16104;48.642;9.008;2023-05-07T16:02:01;1.70;;;1.60;;
29006;SDS011;16104;48.642;9.008;2023-05-07T16:06:57;2.72;;;1.90;;
29006;SDS011;16104;48.642;9.008;2023-05-07T16:11:53;1.80;;;1.70;;
29006;SDS011;16104;48.642;9.008;2023-05-07T16:16:49;3.58;;;2.40;;
29006;SDS011;16104;48.642;9.008;2023-05-07T16:21:44;4.38;;;1.67;;
29006;SDS011;16104;48.642;9.008;2023-05-07T16:26:40;3.78;;;1.90;;
29006;SDS011;16104;48.642;9.008;2023-05-07T16:31:35;2.83;;;1.58;;
29006;SDS011;16104;48.642;9.008;2023-05-07T16:36:31;2.22;;;1.90;;
29006;SDS011;16104;48.642;9.008;2023-05-07T16:41:27;3.97;;;2.00;;
29006;SDS011;16104;48.642;9.008;2023-05-07T16:46:23;2.65;;;2.00;;
29006;SDS011;16104;48.642;9.008;2023-05-07T16:51:18;4.57;;;2.13;;
29006;SDS011;16104;48.642;9.008;2023-05-07T16:56:14;3.13;;;1.92;;
29006;SDS011;16104;48.642;9.008;2023-05-07T17:01:09;3.35;;;2.08;;
29006;SDS011;16104;48.642;9.008;2023-05-07T17:06:06;3.65;;;2.45;;
29006;SDS011;16104;48.642;9.008;2023-05-07T17:11:07;10.25;;;6.70;;
29006;SDS011;16104;48.642;9.008;2023-05-07T17:16:03;8.68;;;4.68;;
29006;SDS011;16104;48.642;9.008;2023-05-07T17:20:59;3.88;;;2.53;;
29006;SDS011;16104;48.642;9.008;2023-05-07T17:25:54;3.65;;;1.98;;
29006;SDS011;16104;48.642;9.008;2023-05-07T17:30:50;2.88;;;1.80;;
29006;SDS011;16104;48.642;9.008;2023-05-07T17:35:46;2.42;;;1.60;;
29006;SDS011;16104;48.642;9.008;2023-05-07T17:40:41;2.92;;;1.70;;
29006;SDS011;16104;48.642;9.008;2023-05-07T17:45:37;2.25;;;1.92;;
29006;SDS011;16104;48.642;9.008;2023-05-07T17:50:32;2.80;;;1.65;;
29006;SDS011;16104;48.642;9.008;2023-05-07T17:55:28;5.90;;;2.25;;
29006;SDS011;16104;48.642;9.008;2023-05-07T18:00:24;3.05;;;2.38;;
29006;SDS011;16104;48.642;9.008;2023-05-07T18:05:20;3.00;;;2.58;;
29006;SDS011;16104;48.642;9.008;2023-05-07T18:10:15;3.30;;;2.55;;
29006;SDS011;16104;48.642;9.008;2023-05-07T18:15:11;7.13;;;2.78;;
29006;SDS011;16104;48.642;9.008;2023-05-07T18:20:06;4.47;;;2.85;;
29006;SDS011;16104;48.642;9.008;2023-05-07T18:25:05;3.35;;;2.20;;
29006;SDS011;16104;48.642;9.008;2023-05-07T18:30:01;3.78;;;3.05;;
29006;SDS011;16104;48.642;9.008;2023-05-07T18:34:57;4.28;;;2.10;;
29006;SDS011;16104;48.642;9.008;2023-05-07T18:39:53;6.15;;;2.13;;
29006;SDS011;16104;48.642;9.008;2023-05-07T18:44:48;4.35;;;3.25;;
29006;SDS011;16104;48.642;9.008;2023-05-07T18:49:44;5.45;;;3.63;;
29006;SDS011;16104;48.642;9.008;2023-05-07T18:54:40;3.45;;;3.15;;
29006;SDS011;16104;48.642;9.008;2023-05-07T18:59:35;3.45;;;3.15;;
29006;SDS011;16104;48.642;9.008;2023-05-07T19:04:31;3.92;;;3.50;;
29006;SDS011;16104;48.642;9.008;2023-05-07T19:09:26;4.65;;;3.33;;
29006;SDS011;16104;48.642;9.008;2023-05-07T19:14:22;4.57;;;3.80;;
29006;SDS011;16104;48.642;9.008;2023-05-07T19:19:17;4.03;;;3.63;;
29006;SDS011;16104;48.642;9.008;2023-05-07T19:24:13;7.28;;;4.18;;
29006;SDS011;16104;48.642;9.008;2023-05-07T19:29:08;12.98;;;8.77;;
29006;SDS011;16104;48.642;9.008;2023-05-07T19:34:05;14.23;;;10.25;;
29006;SDS011;16104;48.642;9.008;2023-05-07T19:39:00;9.65;;;6.95;;
29006;SDS011;16104;48.642;9.008;2023-05-07T19:43:56;6.18;;;4.50;;
29006;SDS011;16104;48.642;9.008;2023-05-07T19:48:51;4.65;;;3.63;;
29006;SDS011;16104;48.642;9.008;2023-05-07T19:53:47;6.03;;;3.47;;
29006;SDS011;16104;48.642;9.008;2023-05-07T19:58:42;4.63;;;3.53;;
29006;SDS011;16104;48.642;9.008;2023-05-07T20:03:38;4.15;;;3.03;;
29006;SDS011;16104;48.642;9.008;2023-05-07T20:08:33;3.85;;;3.28;;
29006;SDS011;16104;48.642;9.008;2023-05-07T20:13:29;4.82;;;3.63;;
29006;SDS011;16104;48.642;9.008;2023-05-07T20:18:25;6.32;;;3.85;;
29006;SDS011;16104;48.642;9.008;2023-05-07T20:23:22;5.45;;;4.13;;
29006;SDS011;16104;48.642;9.008;2023-05-07T20:28:17;5.30;;;3.97;;
29006;SDS011;16104;48.642;9.008;2023-05-07T20:33:13;4.75;;;3.90;;
29006;SDS011;16104;48.642;9.008;2023-05-07T20:38:08;4.32;;;3.50;;
29006;SDS011;16104;48.642;9.008;2023-05-07T20:43:04;3.88;;;3.47;;
29006;SDS011;16104;48.642;9.008;2023-05-07T20:48:00;4.45;;;3.10;;
29006;SDS011;16104;48.642;9.008;2023-05-07T20:52:55;5.07;;;3.90;;
29006;SDS011;16104;48.642;9.008;2023-05-07T20:57:51;4.80;;;3.88;;
29006;SDS011;16104;48.642;9.008;2023-05-07T21:02:46;4.80;;;4.30;;
29006;SDS011;16104;48.642;9.008;2023-05-07T21:07:42;4.38;;;3.95;;
29006;SDS011;16104;48.642;9.008;2023-05-07T21:12:37;5.68;;;4.82;;
29006;SDS011;16104;48.642;9.008;2023-05-07T21:17:33;7.63;;;4.32;;
29006;SDS011;16104;48.642;9.008;2023-05-07T21:22:29;6.85;;;4.60;;
29006;SDS011;16104;48.642;9.008;2023-05-07T21:27:26;6.93;;;4.90;;
29006;SDS011;16104;48.642;9.008;2023-05-07T21:32:22;5.90;;;5.30;;
29006;SDS011;16104;48.642;9.008;2023-05-07T21:37:17;6.50;;;4.80;;
29006;SDS011;16104;48.642;9.008;2023-05-07T21:42:13;6.35;;;5.38;;
29006;SDS011;16104;48.642;9.008;2023-05-07T21:47:08;6.45;;;5.85;;
29006;SDS011;16104;48.642;9.008;2023-05-07T21:52:04;6.65;;;5.45;;
29006;SDS011;16104;48.642;9.008;2023-05-07T21:57:04;6.43;;;5.72;;
29006;SDS011;16104;48.642;9.008;2023-05-07T22:02:00;7.68;;;6.20;;
29006;SDS011;16104;48.642;9.008;2023-05-07T22:06:55;7.35;;;5.80;;
29006;SDS011;16104;48.642;9.008;2023-05-07T22:11:51;7.20;;;5.50;;
29006;SDS011;16104;48.642;9.008;2023-05-07T22:16:46;7.43;;;6.13;;
29006;SDS011;16104;48.642;9.008;2023-05-07T22:21:42;8.05;;;7.25;;
29006;SDS011;16104;48.642;9.008;2023-05-07T22:26:37;8.18;;;6.97;;
29006;SDS011;16104;48.642;9.008;2023-05-07T22:31:33;7.25;;;5.93;;
29006;SDS011;16104;48.642;9.008;2023-05-07T22:36:28;10.02;;;7.10;;
29006;SDS011;16104;48.642;9.008;2023-05-07T22:41:24;7.97;;;7.18;;
29006;SDS011;16104;48.642;9.008;2023-05-07T22:46:20;10.50;;;7.13;;
29006;SDS011;16104;48.642;9.008;2023-05-07T22:51:15;7.22;;;6.32;;
29006;SDS011;16104;48.642;9.008;2023-05-07T22:56:11;6.63;;;6.03;;
29006;SDS011;16104;48.642;9.008;2023-05-07T23:01:10;8.90;;;7.13;;
29006;SDS011;16104;48.642;9.008;2023-05-07T23:06:07;9.35;;;7.32;;
29006;SDS011;16104;48.642;9.008;2023-05-07T23:11:03;8.88;;;7.07;;
29006;SDS011;16104;48.642;9.008;2023-05-07T23:15:58;7.57;;;5.88;;
29006;SDS011;16104;48.642;9.008;2023-05-07T23:20:54;10.30;;;7.47;;
29006;SDS011;16104;48.642;9.008;2023-05-07T23:25:50;5.70;;;5.15;;
29006;SDS011;16104;48.642;9.008;2023-05-07T23:30:47;6.78;;;5.57;;
29006;SDS011;16104;48.642;9.008;2023-05-07T23:35:42;8.13;;;6.50;;
29006;SDS011;16104;48.642;9.008;2023-05-07T23:40:37;7.53;;;5.95;;
29006;SDS011;16104;48.642;9.008;2023-05-07T23:45:33;7.55;;;6.78;;
29006;SDS011;16104;48.642;9.008;2023-05-07T23:50:28;14.98;;;8.48;;
29006;SDS011;16104;48.642;9.008;2023-05-07T23:55:24;8.73;;;7.88;;
